OIIK  Qazvin Airport

Add Bookmark

Qazvin, Iran

Status
Operational
Latitude Longitude
36° 14' 24" N 50° 2' 49" E
36.240101 50.047100
Local (DST + 5) UTC (GMT + 4)
Jul 24, 2014 07:14 Jul 24, 2014 14:44
Sunrise-Sunset Local UTC
Begin Civil Twilight 05:40 01:10
Sunrise 06:09 01:39
Sunset 08:23 15:53
End Civil Twilight 08:52 16:22

Current Weather

METAR Observed VFR
OIIK 241400Z 10010KT CAVOK 37/07 Q1009 Thu, Jul 24, 2014 @ 14:00 UTC
(44 Minutes ago)
Visual Flight Rules

Decoded METAR

Wind Visibility Clouds Conditions
100° at 10 knots (19 kph) 10 km or more
  • Clear skies
  • No significant weather
Temperatures Readings Precipitation
Current Temp 37°C (99°F)
Dewpoint 7°C (45°F)
Humidity 16%
Altimeter 29.79"Hg
Sea Level Pressure 1009mb
Field Elevation 4192.91'
None Recorded

Additional weather within a 92.6km radius of OIIK

Map ICAO Location
OIIP 87km S (126°)

24 Hour Weather History

Loading
-

24 Hour Weather Graphs

Loading
-

CheckWX.com is intended as a tool to help pilots better visualize weather data. It is not intended as a substitute for an official weather briefing obtained from a Flight Service Station. CheckWX.com does not meet the FAA requirements for an official pre-flight weather briefing. Therefore, it's important that pilots still call and obtain an official FSS pre-flight weather briefing.